KTYS

Mc Ghee Tyson Airport

Knoxville, Tennessee, USA
KTYS 151141Z 1512/1612 26005KT 3SM -RA BR OVC006 FM151600 28006KT P6SM OVC015 FM160100 29010KT P6SM OVC025 FM161000 21005KT P6SM SCT025
Issued Valid From Valid To
Nov-15 @ 11:41 UTC
(an hour ago)
Nov-15 @ 12:00 UTC
(44 minutes ago)
Nov-16 @ 12:00 UTC
(in 23 hours)
Nov-15 @ 12:00 to Nov-15 @ 16:00
KTYS 151141Z 1512/1612 26005KT 3SM -RA BR OVC006
Wind Visibility Clouds Conditions
260° at 5 knots 3 miles
  • Overcast at 600' AGL
  • Light Rain
  • Mist
From Nov-15 @ 16:00 to Nov-16 @ 01:00
FM151600 28006KT P6SM OVC015
Wind Visibility Clouds
280° at 6 knots Greater than 6 miles
  • Overcast at 1,500' AGL
From Nov-16 @ 01:00 to Nov-16 @ 10:00
FM160100 29010KT P6SM OVC025
Wind Visibility Clouds
290° at 10 knots Greater than 6 miles
  • Overcast at 2,500' AGL
From Nov-16 @ 10:00 to Nov-16 @ 12:00
FM161000 21005KT P6SM SCT025
Wind Visibility Clouds
210° at 5 knots Greater than 6 miles
  • Scattered at 2,500' AGL
KTYS 151141Z 1512/1612 26005KT 3SM -RA BR OVC006 FM151600 28006KT P6SM OVC015 FM160100 29010KT P6SM OVC025 FM161000 21005KT P6SM SCT025
Issued Nov-15 @ 11:41 UTC
(an hour ago)
Valid From Nov-15 @ 12:00 UTC
(44 minutes ago)
Valid To Nov-16 @ 12:00 UTC
(in 23 hours)
Nov-15 @ 12:00 - Nov-15 @ 16:00
Wind Visibility
260° at 5 knots 3 miles
Clouds
  • Overcast at 600' AGL
Conditions
  • Light Rain
  • Mist
From Nov-15 @ 16:00 - Nov-16 @ 01:00
Wind Visibility
280° at 6 knots Greater than 6 miles
Clouds
  • Overcast at 1,500' AGL
From Nov-16 @ 01:00 - Nov-16 @ 10:00
Wind Visibility
290° at 10 knots Greater than 6 miles
Clouds
  • Overcast at 2,500' AGL
From Nov-16 @ 10:00 - Nov-16 @ 12:00
Wind Visibility
210° at 5 knots Greater than 6 miles
Clouds
  • Scattered at 2,500' AGL